createdAt,value
2023-05-18T00:00:08.662Z,73.52
2023-05-18T00:01:08.669Z,73.17
2023-05-18T00:02:08.722Z,73.27
2023-05-18T00:03:08.768Z,73.07
2023-05-18T00:04:08.737Z,72.73
2023-05-18T00:05:08.664Z,73.04
2023-05-18T00:06:08.661Z,72.78
2023-05-18T00:07:08.652Z,72.42
2023-05-18T00:08:09.902Z,72.20
2023-05-18T00:09:08.653Z,72.12
2023-05-18T00:10:08.684Z,72.05
2023-05-18T00:11:08.627Z,72.13
2023-05-18T00:12:08.618Z,72.08
2023-05-18T00:13:08.627Z,71.85
2023-05-18T00:14:08.725Z,71.83
2023-05-18T00:15:08.633Z,71.74
2023-05-18T00:16:08.654Z,71.97
2023-05-18T00:17:08.601Z,72.05
2023-05-18T00:18:08.672Z,72.14
2023-05-18T00:19:08.765Z,73.07
2023-05-18T00:20:08.665Z,73.36
2023-05-18T00:21:08.671Z,73.47
2023-05-18T00:22:08.702Z,73.62
2023-05-18T00:23:08.798Z,72.98
2023-05-18T00:24:08.819Z,72.81
2023-05-18T00:25:08.867Z,72.39
2023-05-18T00:26:08.859Z,72.31
2023-05-18T00:27:08.886Z,72.71
2023-05-18T00:28:08.938Z,73.04
2023-05-18T00:29:09.009Z,72.65
2023-05-18T00:30:09.096Z,73.05
2023-05-18T00:31:09.123Z,72.27
2023-05-18T00:32:09.204Z,72.23
2023-05-18T00:33:09.225Z,72.73
2023-05-18T00:34:09.230Z,72.17
2023-05-18T00:35:09.248Z,72.05
2023-05-18T00:36:09.258Z,72.13
2023-05-18T00:37:09.291Z,71.80
2023-05-18T00:38:09.297Z,71.71
2023-05-18T00:39:09.309Z,71.79
2023-05-18T00:40:09.300Z,71.46
2023-05-18T00:41:09.300Z,71.46
2023-05-18T00:42:09.310Z,71.23
2023-05-18T00:43:09.298Z,71.37
2023-05-18T00:44:09.298Z,71.29
2023-05-18T00:45:09.301Z,71.31
2023-05-18T00:46:09.424Z,71.25
2023-05-18T00:47:09.347Z,71.41
2023-05-18T00:48:09.430Z,71.55
2023-05-18T00:49:09.356Z,71.22
2023-05-18T00:50:09.367Z,71.02
2023-05-18T00:51:09.389Z,71.02
2023-05-18T00:52:09.401Z,70.91
2023-05-18T00:53:09.429Z,70.71
2023-05-18T00:54:09.472Z,70.90
2023-05-18T00:55:09.581Z,70.74
2023-05-18T00:56:09.566Z,70.79
2023-05-18T00:57:09.728Z,70.73
2023-05-18T00:58:09.663Z,70.90
2023-05-18T00:59:09.695Z,70.77
2023-05-18T01:00:09.717Z,70.57
2023-05-18T01:01:09.814Z,70.50
2023-05-18T01:02:09.906Z,70.69
2023-05-18T01:03:09.971Z,70.80
2023-05-18T01:04:09.801Z,70.59
2023-05-18T01:05:09.809Z,70.82
2023-05-18T01:06:09.794Z,70.64
2023-05-18T01:07:09.806Z,70.70
2023-05-18T01:08:09.822Z,70.85
2023-05-18T01:09:09.873Z,71.14
2023-05-18T01:10:09.877Z,71.41
2023-05-18T01:11:09.997Z,71.66
2023-05-18T01:12:09.930Z,71.64
2023-05-18T01:13:09.968Z,72.21
2023-05-18T01:14:10.007Z,72.17
2023-05-18T01:15:10.035Z,72.14
2023-05-18T01:16:10.055Z,71.99
2023-05-18T01:17:10.179Z,72.20
2023-05-18T01:18:10.341Z,72.15
2023-05-18T01:19:10.183Z,72.08
2023-05-18T01:20:10.190Z,72.17
2023-05-18T01:21:10.215Z,72.30
2023-05-18T01:22:10.215Z,72.44
2023-05-18T01:23:10.344Z,72.47
2023-05-18T01:24:10.296Z,72.63
2023-05-18T01:25:10.376Z,72.70
2023-05-18T01:26:10.432Z,72.73
2023-05-18T01:27:10.484Z,72.85
2023-05-18T01:28:10.521Z,72.68
2023-05-18T01:29:10.528Z,72.86
2023-05-18T01:30:10.577Z,72.67
2023-05-18T01:31:10.620Z,72.55
2023-05-18T01:32:10.644Z,72.38
2023-05-18T01:33:10.750Z,72.52
2023-05-18T01:34:10.813Z,72.19
2023-05-18T01:35:10.807Z,72.18
2023-05-18T01:36:10.870Z,72.01
2023-05-18T01:37:10.919Z,71.91
2023-05-18T01:38:10.967Z,71.78
2023-05-18T01:39:11.007Z,71.56
2023-05-18T01:40:11.103Z,71.55
2023-05-18T01:41:11.099Z,71.60
2023-05-18T01:42:11.132Z,71.79
2023-05-18T01:43:11.148Z,71.93
2023-05-18T01:44:12.045Z,72.05
2023-05-18T01:45:11.247Z,72.22
2023-05-18T01:46:11.346Z,72.06
2023-05-18T01:47:11.354Z,72.21
2023-05-18T01:48:11.479Z,71.99
2023-05-18T01:49:11.441Z,72.25
2023-05-18T01:50:11.527Z,72.10
2023-05-18T01:51:11.549Z,72.07
2023-05-18T01:52:11.624Z,72.16
2023-05-18T01:53:11.715Z,72.29
2023-05-18T01:54:11.747Z,72.78
2023-05-18T01:55:11.805Z,72.70
2023-05-18T01:56:11.869Z,72.57
2023-05-18T01:57:11.977Z,72.50
2023-05-18T01:58:12.009Z,72.32
2023-05-18T01:59:12.070Z,72.96
2023-05-18T02:00:12.100Z,72.98
2023-05-18T02:01:12.174Z,73.07
2023-05-18T02:02:12.261Z,73.02
2023-05-18T02:03:12.415Z,73.05
2023-05-18T02:04:12.511Z,73.12
2023-05-18T02:05:12.452Z,73.07
2023-05-18T02:06:12.492Z,73.06
2023-05-18T02:07:12.562Z,73.01
2023-05-18T02:08:12.604Z,73.09
2023-05-18T02:09:12.655Z,73.30
2023-05-18T02:10:12.698Z,73.66
2023-05-18T02:11:12.734Z,73.44
2023-05-18T02:12:12.781Z,73.55
2023-05-18T02:13:12.808Z,73.47
2023-05-18T02:14:12.853Z,73.66
2023-05-18T02:15:12.895Z,73.60
2023-05-18T02:16:12.952Z,73.26
2023-05-18T02:17:13.013Z,73.46
2023-05-18T02:18:13.071Z,73.74
2023-05-18T02:19:13.156Z,73.61
2023-05-18T02:20:13.149Z,73.71
2023-05-18T02:21:13.196Z,73.78
2023-05-18T02:22:13.277Z,73.22
2023-05-18T02:23:13.288Z,73.74
2023-05-18T02:24:13.328Z,73.68
2023-05-18T02:25:13.402Z,73.57
2023-05-18T02:26:13.461Z,73.53
2023-05-18T02:27:13.539Z,73.59
2023-05-18T02:28:13.563Z,73.92
2023-05-18T02:29:13.584Z,73.58
2023-05-18T02:30:15.761Z,73.51
2023-05-18T02:31:13.628Z,73.69
2023-05-18T02:32:13.658Z,73.86
2023-05-18T02:33:13.651Z,73.57
2023-05-18T02:34:13.615Z,73.68
2023-05-18T02:35:13.566Z,73.65
2023-05-18T02:36:13.573Z,73.53
2023-05-18T02:37:13.533Z,73.01
2023-05-18T02:38:13.556Z,72.61
2023-05-18T02:39:13.560Z,72.45
2023-05-18T02:40:13.549Z,72.27
2023-05-18T02:41:13.550Z,72.35
2023-05-18T02:42:13.559Z,72.16
2023-05-18T02:43:13.609Z,73.23
2023-05-18T02:44:13.557Z,72.71
2023-05-18T02:45:13.558Z,72.43
2023-05-18T02:46:13.565Z,72.39
2023-05-18T02:47:13.537Z,72.23
2023-05-18T02:48:13.531Z,71.95
2023-05-18T02:49:13.514Z,71.83
2023-05-18T02:50:13.488Z,71.86
2023-05-18T02:51:13.490Z,71.65
2023-05-18T02:52:13.469Z,71.36
2023-05-18T02:53:13.471Z,71.57
2023-05-18T02:54:13.577Z,71.36
2023-05-18T02:55:13.453Z,71.32
2023-05-18T02:56:13.455Z,71.30
2023-05-18T02:57:13.448Z,71.25
2023-05-18T02:58:13.453Z,71.22
2023-05-18T02:59:13.443Z,71.23
2023-05-18T03:00:13.445Z,71.60
2023-05-18T03:01:13.500Z,71.76
2023-05-18T03:02:13.498Z,71.68
2023-05-18T03:03:13.512Z,71.72
2023-05-18T03:04:13.428Z,71.73
2023-05-18T03:05:13.425Z,71.73
2023-05-18T03:06:13.416Z,71.82
2023-05-18T03:07:13.416Z,71.98
2023-05-18T03:08:13.406Z,71.78
2023-05-18T03:09:13.408Z,72.16
2023-05-18T03:10:13.435Z,72.22
2023-05-18T03:11:13.456Z,72.17
2023-05-18T03:12:13.516Z,71.92
2023-05-18T03:13:13.573Z,72.07
2023-05-18T03:14:13.625Z,71.98
2023-05-18T03:15:13.682Z,71.99
2023-05-18T03:16:13.771Z,72.52
2023-05-18T03:17:13.784Z,72.55
2023-05-18T03:18:13.850Z,72.74
2023-05-18T03:19:13.919Z,72.85
2023-05-18T03:20:13.907Z,73.34
2023-05-18T03:21:13.983Z,73.03
2023-05-18T03:22:14.012Z,72.90
2023-05-18T03:23:14.075Z,73.12
2023-05-18T03:24:14.132Z,73.33
2023-05-18T03:25:14.200Z,73.89
2023-05-18T03:26:14.278Z,73.63
2023-05-18T03:27:14.271Z,73.54
2023-05-18T03:28:14.357Z,73.31
2023-05-18T03:29:14.420Z,73.47
2023-05-18T03:30:14.498Z,73.61
2023-05-18T03:31:14.636Z,73.40
2023-05-18T03:32:14.615Z,73.47
2023-05-18T03:33:14.701Z,73.30
2023-05-18T03:34:14.651Z,73.60
2023-05-18T03:35:14.719Z,73.56
2023-05-18T03:36:14.792Z,73.28
2023-05-18T03:37:14.913Z,73.30
2023-05-18T03:38:14.980Z,73.29
2023-05-18T03:39:14.976Z,73.17
2023-05-18T03:40:15.038Z,73.48
2023-05-18T03:41:15.066Z,73.75
2023-05-18T03:42:15.152Z,73.70
2023-05-18T03:43:15.190Z,73.52
2023-05-18T03:44:15.266Z,73.32
2023-05-18T03:45:15.257Z,73.45
2023-05-18T03:46:15.323Z,73.42
2023-05-18T03:47:15.304Z,73.46
2023-05-18T03:48:15.335Z,73.15
2023-05-18T03:49:15.391Z,73.24
2023-05-18T03:50:15.424Z,73.16
2023-05-18T03:51:15.460Z,72.99
2023-05-18T03:52:15.520Z,73.00
2023-05-18T03:53:15.550Z,73.10
2023-05-18T03:54:15.597Z,73.09
2023-05-18T03:55:15.648Z,73.44
2023-05-18T03:56:15.755Z,73.52
2023-05-18T03:57:15.777Z,73.65
2023-05-18T03:58:15.909Z,73.73
2023-05-18T03:59:15.881Z,73.34
2023-05-18T04:00:15.935Z,73.48
2023-05-18T04:01:15.986Z,73.39
2023-05-18T04:02:16.116Z,73.63
2023-05-18T04:03:16.167Z,73.31
2023-05-18T04:04:16.255Z,73.48
2023-05-18T04:05:16.216Z,73.85
2023-05-18T04:06:16.263Z,73.50
2023-05-18T04:07:16.264Z,73.14
2023-05-18T04:08:16.352Z,73.14
2023-05-18T04:09:16.384Z,73.17
2023-05-18T04:10:16.433Z,73.78
2023-05-18T04:11:16.483Z,73.12
2023-05-18T04:12:16.546Z,72.81
2023-05-18T04:13:16.591Z,72.44
2023-05-18T04:14:16.704Z,72.57
2023-05-18T04:15:16.731Z,72.57
2023-05-18T04:16:16.816Z,72.83
2023-05-18T04:17:16.793Z,72.44
2023-05-18T04:18:16.833Z,72.77
2023-05-18T04:19:16.947Z,72.63
2023-05-18T04:20:16.955Z,72.76
2023-05-18T04:21:17.008Z,72.91
2023-05-18T04:22:17.101Z,73.67
2023-05-18T04:23:17.168Z,73.01
2023-05-18T04:24:17.250Z,73.01
2023-05-18T04:25:17.327Z,72.81
2023-05-18T04:26:17.375Z,73.12
2023-05-18T04:27:18.034Z,73.07
2023-05-18T04:28:17.470Z,72.70
2023-05-18T04:29:17.519Z,72.38
2023-05-18T04:30:17.558Z,72.06
2023-05-18T04:31:17.560Z,71.88
2023-05-18T04:32:17.667Z,71.90
2023-05-18T04:33:17.598Z,71.59
2023-05-18T04:34:17.623Z,71.58
2023-05-18T04:35:17.679Z,71.27
2023-05-18T04:36:19.546Z,70.96
2023-05-18T04:37:17.702Z,71.06
2023-05-18T04:38:17.721Z,70.85
2023-05-18T04:39:17.734Z,70.74
2023-05-18T04:40:17.813Z,70.52
2023-05-18T04:41:17.787Z,70.28
2023-05-18T04:42:17.763Z,70.14
2023-05-18T04:43:17.767Z,70.24
2023-05-18T04:44:17.780Z,70.32
2023-05-18T04:45:17.931Z,70.61
2023-05-18T04:46:17.852Z,70.84
2023-05-18T04:47:17.797Z,70.79
2023-05-18T04:48:17.826Z,70.60
2023-05-18T04:49:17.798Z,70.60
2023-05-18T04:50:17.793Z,70.62
2023-05-18T04:51:17.795Z,70.86
2023-05-18T04:52:17.786Z,70.97
2023-05-18T04:53:17.802Z,71.06
2023-05-18T04:54:17.797Z,71.13
2023-05-18T04:55:17.813Z,71.33
2023-05-18T04:56:17.820Z,71.78
2023-05-18T04:57:17.815Z,71.27
2023-05-18T04:58:17.824Z,71.48
2023-05-18T04:59:17.838Z,71.53
2023-05-18T05:00:17.853Z,71.35
2023-05-18T05:01:17.856Z,71.39
2023-05-18T05:02:17.918Z,71.61
2023-05-18T05:03:18.090Z,71.58
2023-05-18T05:04:17.882Z,71.43
2023-05-18T05:05:17.894Z,71.54
2023-05-18T05:06:17.899Z,72.77
2023-05-18T05:07:17.923Z,72.21
2023-05-18T05:08:17.942Z,72.02
2023-05-18T05:09:17.969Z,72.18
2023-05-18T05:10:17.960Z,72.10
2023-05-18T05:11:17.973Z,71.84
2023-05-18T05:12:17.993Z,71.77
2023-05-18T05:13:18.048Z,71.84
2023-05-18T05:14:18.126Z,72.16
2023-05-18T05:15:18.223Z,72.27
2023-05-18T05:16:18.281Z,72.61
2023-05-18T05:17:18.238Z,72.61
2023-05-18T05:18:18.318Z,72.46
2023-05-18T05:19:18.432Z,72.53
2023-05-18T05:20:18.499Z,73.19
2023-05-18T05:21:18.563Z,73.11
2023-05-18T05:22:18.608Z,73.26
2023-05-18T05:23:18.715Z,73.04
2023-05-18T05:24:18.725Z,73.15
2023-05-18T05:25:18.773Z,72.87
2023-05-18T05:26:18.798Z,72.36
2023-05-18T05:27:18.900Z,72.60
2023-05-18T05:28:18.954Z,72.74
2023-05-18T05:29:19.021Z,72.60
2023-05-18T05:30:19.154Z,72.21
2023-05-18T05:31:19.246Z,72.34
2023-05-18T05:32:19.289Z,72.51
2023-05-18T05:33:19.319Z,72.19
2023-05-18T05:34:19.370Z,71.61
2023-05-18T05:35:19.398Z,71.39
2023-05-18T05:36:19.382Z,71.33
2023-05-18T05:37:19.430Z,71.49
2023-05-18T05:38:19.445Z,71.25
2023-05-18T05:39:19.512Z,71.11
2023-05-18T05:40:19.579Z,71.06
2023-05-18T05:41:19.674Z,71.23
2023-05-18T05:42:19.720Z,71.66
2023-05-18T05:43:19.768Z,71.43
2023-05-18T05:44:19.815Z,71.23
2023-05-18T05:45:19.902Z,71.65
2023-05-18T05:46:19.982Z,71.78
2023-05-18T05:47:20.029Z,71.98
2023-05-18T05:48:20.119Z,71.81
2023-05-18T05:49:20.114Z,72.03
2023-05-18T05:50:20.207Z,71.69
2023-05-18T05:51:20.248Z,71.79
2023-05-18T05:52:20.246Z,71.95
2023-05-18T05:53:20.308Z,71.75
2023-05-18T05:54:20.368Z,71.17
2023-05-18T05:55:20.435Z,70.78
2023-05-18T05:56:20.489Z,70.67
2023-05-18T05:57:20.549Z,71.26
2023-05-18T05:58:20.584Z,71.28
2023-05-18T05:59:20.598Z,70.93
2023-05-18T06:00:20.615Z,70.79
2023-05-18T06:01:20.644Z,70.49
2023-05-18T06:02:20.725Z,70.90
2023-05-18T06:03:20.845Z,70.48
2023-05-18T06:04:20.866Z,70.81
2023-05-18T06:05:20.846Z,70.47
2023-05-18T06:06:20.978Z,69.80
2023-05-18T06:07:20.962Z,70.37
2023-05-18T06:08:21.007Z,70.44
2023-05-18T06:09:21.056Z,70.84
2023-05-18T06:10:21.106Z,70.32
2023-05-18T06:11:21.153Z,69.69
2023-05-18T06:12:21.220Z,69.39
2023-05-18T06:13:21.300Z,69.19
2023-05-18T06:14:21.406Z,69.27
2023-05-18T06:15:21.371Z,69.53
2023-05-18T06:16:21.421Z,69.76
2023-05-18T06:17:21.402Z,69.04
2023-05-18T06:18:21.426Z,69.30
2023-05-18T06:19:21.537Z,69.04
2023-05-18T06:20:21.468Z,68.79
2023-05-18T06:21:21.476Z,68.65
2023-05-18T06:22:21.530Z,68.60
2023-05-18T06:23:21.546Z,67.45
2023-05-18T06:24:21.526Z,67.92
2023-05-18T06:25:21.534Z,67.80
2023-05-18T06:26:21.541Z,68.02
2023-05-18T06:27:21.539Z,67.16
2023-05-18T06:28:21.597Z,67.56
2023-05-18T06:29:21.631Z,66.80
2023-05-18T06:30:21.604Z,66.97
2023-05-18T06:31:21.666Z,66.37
2023-05-18T06:32:21.707Z,66.74
2023-05-18T06:33:21.683Z,65.59
2023-05-18T06:34:21.668Z,66.15
2023-05-18T06:35:21.698Z,66.97
2023-05-18T06:36:21.749Z,66.55
2023-05-18T06:37:21.768Z,66.13
2023-05-18T06:38:21.874Z,66.55
2023-05-18T06:39:21.801Z,66.86
2023-05-18T06:40:21.825Z,66.07
2023-05-18T06:41:21.807Z,65.94
2023-05-18T06:42:21.821Z,66.14
2023-05-18T06:43:21.815Z,66.83
2023-05-18T06:44:21.815Z,65.16
2023-05-18T06:45:21.812Z,65.84
2023-05-18T06:46:21.868Z,65.77
2023-05-18T06:47:21.864Z,64.61
2023-05-18T06:48:21.866Z,65.29
2023-05-18T06:49:21.890Z,65.27
2023-05-18T06:50:21.891Z,65.61
2023-05-18T06:51:21.932Z,64.24
2023-05-18T06:52:21.917Z,63.74
2023-05-18T06:53:21.940Z,63.67
2023-05-18T06:54:22.009Z,64.88
2023-05-18T06:55:22.029Z,63.11
2023-05-18T06:56:22.072Z,62.51
2023-05-18T06:57:22.099Z,63.31
2023-05-18T06:58:22.153Z,63.74
2023-05-18T06:59:22.174Z,62.96
2023-05-18T07:00:22.201Z,63.30
2023-05-18T07:01:22.237Z,62.63
2023-05-18T07:02:22.255Z,62.44
2023-05-18T07:03:22.229Z,64.42
2023-05-18T07:04:22.227Z,62.40
2023-05-18T07:05:22.237Z,62.52
2023-05-18T07:06:22.228Z,62.37
2023-05-18T07:07:22.228Z,62.36
2023-05-18T07:08:22.236Z,63.55
2023-05-18T07:09:22.236Z,61.28
2023-05-18T07:10:22.291Z,63.04
2023-05-18T07:11:22.279Z,62.08
2023-05-18T07:12:22.278Z,61.83
2023-05-18T07:13:22.301Z,61.28
2023-05-18T07:14:22.338Z,61.08
2023-05-18T07:15:22.317Z,62.66
2023-05-18T07:16:22.336Z,63.12
2023-05-18T07:17:22.287Z,61.05
2023-05-18T07:18:22.335Z,60.45
2023-05-18T07:19:22.485Z,60.99
2023-05-18T07:20:24.272Z,61.75
2023-05-18T07:21:22.365Z,60.97
2023-05-18T07:22:22.337Z,61.18
2023-05-18T07:23:22.300Z,60.82
2023-05-18T07:24:22.276Z,60.97
2023-05-18T07:25:22.263Z,59.99
2023-05-18T07:26:22.240Z,58.98
2023-05-18T07:27:22.220Z,57.94
2023-05-18T07:28:22.148Z,58.67
2023-05-18T07:29:22.099Z,57.95
2023-05-18T07:30:22.062Z,58.40
2023-05-18T07:31:22.077Z,57.81
2023-05-18T07:32:21.970Z,56.59
2023-05-18T07:33:21.923Z,56.45
2023-05-18T07:34:21.878Z,56.83
2023-05-18T07:35:21.848Z,57.12
2023-05-18T07:36:21.786Z,56.76
2023-05-18T07:37:21.777Z,56.93
2023-05-18T07:38:21.719Z,56.37
2023-05-18T07:39:21.684Z,56.00
2023-05-18T07:40:21.658Z,54.49
2023-05-18T07:41:21.655Z,55.12
2023-05-18T07:42:21.691Z,54.62
2023-05-18T07:43:21.661Z,54.51
2023-05-18T07:44:21.692Z,55.10
2023-05-18T07:45:21.702Z,55.03
2023-05-18T07:46:21.782Z,55.72
2023-05-18T07:47:21.704Z,55.28
2023-05-18T07:48:21.677Z,55.96
2023-05-18T07:49:21.669Z,54.00
2023-05-18T07:50:21.687Z,53.51
2023-05-18T07:51:21.662Z,53.58
2023-05-18T07:52:21.680Z,54.21
2023-05-18T07:53:21.654Z,55.02
2023-05-18T07:54:21.681Z,55.38
2023-05-18T07:55:21.709Z,54.82
2023-05-18T07:56:21.723Z,54.95
2023-05-18T07:57:21.685Z,53.83
2023-05-18T07:58:21.710Z,53.60
2023-05-18T07:59:21.666Z,53.74
2023-05-18T08:00:21.629Z,53.66
2023-05-18T08:01:21.646Z,53.86
2023-05-18T08:02:21.715Z,54.63
2023-05-18T08:03:21.824Z,53.76
2023-05-18T08:04:21.747Z,53.92
2023-05-18T08:05:21.694Z,53.87
2023-05-18T08:06:21.721Z,54.16
2023-05-18T08:07:21.716Z,54.53
2023-05-18T08:08:21.744Z,55.06
2023-05-18T08:09:21.779Z,55.10
2023-05-18T08:10:21.757Z,56.29
2023-05-18T08:11:21.755Z,56.40
2023-05-18T08:12:21.773Z,55.97
2023-05-18T08:13:21.785Z,56.06
2023-05-18T08:14:21.860Z,55.53
2023-05-18T08:15:21.846Z,54.82
2023-05-18T08:16:22.250Z,55.24
2023-05-18T08:17:21.821Z,55.68
2023-05-18T08:18:21.813Z,55.55
2023-05-18T08:19:21.948Z,56.26
2023-05-18T08:20:21.865Z,55.30
2023-05-18T08:21:21.844Z,54.55
2023-05-18T08:22:21.822Z,54.61
2023-05-18T08:23:21.790Z,54.33
2023-05-18T08:24:21.819Z,54.67
2023-05-18T08:25:21.850Z,55.25
2023-05-18T08:26:21.833Z,55.50
2023-05-18T08:27:21.858Z,55.07
2023-05-18T08:28:21.857Z,53.48
2023-05-18T08:29:21.882Z,53.87
2023-05-18T08:30:21.877Z,53.54
2023-05-18T08:31:21.876Z,54.58
2023-05-18T08:32:21.907Z,53.94
2023-05-18T08:33:21.953Z,53.28
2023-05-18T08:34:21.916Z,53.12
2023-05-18T08:35:21.914Z,53.52
2023-05-18T08:36:21.902Z,53.70
2023-05-18T08:37:21.936Z,53.73
2023-05-18T08:38:21.932Z,53.63
2023-05-18T08:39:21.920Z,54.17
2023-05-18T08:40:21.934Z,54.39
2023-05-18T08:41:21.883Z,53.23
2023-05-18T08:42:21.854Z,52.76
2023-05-18T08:43:21.849Z,52.71
2023-05-18T08:44:21.830Z,52.91
2023-05-18T08:45:21.826Z,52.72
2023-05-18T08:46:21.863Z,53.18
2023-05-18T08:47:21.850Z,53.98
2023-05-18T08:48:21.886Z,54.17
2023-05-18T08:49:21.755Z,53.78
2023-05-18T08:50:24.296Z,53.97
2023-05-18T08:51:21.712Z,54.50
2023-05-18T08:52:21.664Z,53.49
2023-05-18T08:53:21.616Z,52.94
2023-05-18T08:54:21.574Z,52.26
2023-05-18T08:55:21.556Z,52.25
2023-05-18T08:56:21.465Z,52.34
2023-05-18T08:57:21.415Z,52.64
2023-05-18T08:58:21.404Z,53.58
2023-05-18T08:59:21.343Z,53.19
2023-05-18T09:00:22.918Z,53.74
2023-05-18T09:01:21.311Z,53.68
2023-05-18T09:02:21.234Z,54.00
2023-05-18T09:03:21.172Z,53.80
2023-05-18T09:04:21.090Z,53.83
2023-05-18T09:05:21.155Z,54.06
2023-05-18T09:07:19.906Z,52.42
2023-05-18T09:08:20.878Z,52.64
2023-05-18T09:09:20.841Z,52.23
2023-05-18T09:10:20.790Z,52.12
2023-05-18T09:11:20.751Z,51.95
2023-05-18T09:12:22.225Z,51.62
2023-05-18T09:13:20.681Z,51.55
2023-05-18T09:14:20.652Z,51.31
2023-05-18T09:15:20.606Z,51.45
2023-05-18T09:16:20.637Z,51.26
2023-05-18T09:17:20.524Z,51.25
2023-05-18T09:18:22.196Z,52.27
2023-05-18T09:19:20.504Z,53.60
2023-05-18T09:20:20.422Z,52.69
2023-05-18T09:21:20.382Z,52.76
2023-05-18T09:22:20.356Z,52.58
2023-05-18T09:23:20.353Z,52.85
2023-05-18T09:24:22.435Z,52.60
2023-05-18T09:25:20.268Z,52.77
2023-05-18T09:26:21.145Z,52.30
2023-05-18T09:27:20.184Z,52.60
2023-05-18T09:28:20.139Z,52.54
2023-05-18T09:29:20.105Z,52.48
2023-05-18T09:30:20.063Z,52.02
2023-05-18T09:31:20.045Z,52.03
2023-05-18T09:32:19.968Z,52.04
2023-05-18T09:33:20.004Z,52.47
2023-05-18T09:34:19.903Z,52.22
2023-05-18T09:35:19.845Z,52.18
2023-05-18T09:36:19.797Z,52.59
2023-05-18T09:37:19.760Z,52.55
2023-05-18T09:38:19.740Z,52.81
2023-05-18T09:39:19.776Z,52.98
2023-05-18T09:40:19.794Z,53.02
2023-05-18T09:41:19.790Z,54.29
2023-05-18T09:42:19.892Z,53.80
2023-05-18T09:43:19.735Z,53.67
2023-05-18T09:44:19.684Z,53.39
2023-05-18T09:45:19.675Z,53.55
2023-05-18T09:46:19.723Z,53.87
2023-05-18T09:47:19.707Z,53.96
2023-05-18T09:48:19.696Z,54.20
2023-05-18T09:49:19.675Z,53.76
2023-05-18T09:50:19.759Z,54.38
2023-05-18T09:51:19.666Z,54.61
2023-05-18T09:52:19.656Z,53.40
2023-05-18T09:53:19.671Z,53.52
2023-05-18T09:54:19.658Z,53.43
2023-05-18T09:55:19.699Z,53.43
2023-05-18T09:56:19.682Z,54.04
2023-05-18T09:57:19.706Z,54.81
2023-05-18T09:58:19.691Z,54.08
2023-05-18T09:59:19.683Z,53.82
2023-05-18T10:00:19.977Z,54.67
2023-05-18T10:01:19.777Z,54.28
2023-05-18T10:02:19.654Z,54.10
2023-05-18T10:03:19.666Z,53.88
2023-05-18T10:04:19.699Z,53.89
2023-05-18T10:05:19.622Z,54.02
2023-05-18T10:06:19.634Z,55.07
2023-05-18T10:07:20.099Z,55.16
2023-05-18T10:08:19.567Z,54.09
2023-05-18T10:09:19.532Z,54.35
2023-05-18T10:10:19.560Z,53.88
2023-05-18T10:11:19.468Z,54.60
2023-05-18T10:12:19.423Z,54.19
2023-05-18T10:13:19.394Z,52.38
2023-05-18T10:14:19.417Z,52.69
2023-05-18T10:15:19.366Z,53.27
2023-05-18T10:16:19.355Z,53.32
2023-05-18T10:17:19.322Z,53.73
2023-05-18T10:18:19.321Z,52.80
2023-05-18T10:19:19.242Z,52.02
2023-05-18T10:20:19.281Z,51.39
2023-05-18T10:21:19.173Z,51.73
2023-05-18T10:22:19.197Z,51.99
2023-05-18T10:23:19.214Z,52.19
2023-05-18T10:24:19.210Z,51.74
2023-05-18T10:25:19.205Z,52.28
2023-05-18T10:26:19.194Z,52.33
2023-05-18T10:27:19.204Z,52.01
2023-05-18T10:28:19.226Z,51.57
2023-05-18T10:29:19.263Z,51.84
2023-05-18T10:30:19.348Z,51.63
2023-05-18T10:31:19.268Z,51.71
2023-05-18T10:32:19.257Z,51.42
2023-05-18T10:33:28.567Z,52.19
2023-05-18T10:34:19.230Z,50.72
2023-05-18T10:35:19.204Z,50.56
2023-05-18T10:36:19.164Z,50.37
2023-05-18T10:37:19.112Z,50.63
2023-05-18T10:38:19.139Z,51.08
2023-05-18T10:39:19.039Z,50.78
2023-05-18T10:40:19.065Z,51.12
2023-05-18T10:41:18.932Z,51.59
2023-05-18T10:42:18.887Z,51.70
2023-05-18T10:43:20.401Z,51.23
2023-05-18T10:44:18.771Z,50.91
2023-05-18T10:45:18.742Z,50.60
2023-05-18T10:46:18.769Z,50.89
2023-05-18T10:47:18.702Z,50.58
2023-05-18T10:48:18.624Z,51.42
2023-05-18T10:49:18.547Z,51.71
2023-05-18T10:50:18.528Z,52.29
2023-05-18T10:51:19.263Z,52.35
2023-05-18T10:52:18.438Z,52.38
2023-05-18T10:53:18.396Z,52.97
2023-05-18T10:54:18.425Z,52.76
2023-05-18T10:55:18.328Z,51.94
2023-05-18T10:56:18.328Z,51.55
2023-05-18T10:57:18.259Z,52.08
2023-05-18T10:58:18.219Z,52.73
2023-05-18T10:59:18.193Z,52.42
2023-05-18T11:00:18.133Z,52.66
2023-05-18T11:01:18.200Z,52.37
2023-05-18T11:02:18.061Z,52.18
2023-05-18T11:03:18.145Z,51.63
2023-05-18T11:04:18.122Z,52.01
2023-05-18T11:05:18.182Z,51.56
2023-05-18T11:06:18.062Z,51.44
2023-05-18T11:07:18.054Z,52.02
2023-05-18T11:08:18.036Z,51.83
2023-05-18T11:09:18.012Z,52.28
2023-05-18T11:10:18.057Z,51.99
2023-05-18T11:11:19.239Z,52.86
2023-05-18T11:12:18.072Z,52.12
2023-05-18T11:13:18.095Z,52.05
2023-05-18T11:14:18.107Z,52.56
2023-05-18T11:15:18.198Z,52.78
2023-05-18T11:16:18.151Z,52.49
2023-05-18T11:17:18.169Z,52.08
2023-05-18T11:18:18.210Z,52.65
2023-05-18T11:19:18.161Z,53.12
2023-05-18T11:20:18.166Z,53.25
2023-05-18T11:21:18.093Z,52.40
2023-05-18T11:22:18.074Z,52.31
2023-05-18T11:23:18.048Z,52.66
2023-05-18T11:24:18.064Z,51.67
2023-05-18T11:25:18.078Z,52.92
2023-05-18T11:26:18.069Z,53.09
2023-05-18T11:27:18.031Z,51.70
2023-05-18T11:28:18.057Z,52.04
2023-05-18T11:29:18.086Z,51.64
2023-05-18T11:30:18.136Z,52.37
2023-05-18T11:31:18.119Z,51.68
2023-05-18T11:32:22.705Z,52.15
2023-05-18T11:33:18.194Z,51.51
2023-05-18T11:34:18.019Z,51.79
2023-05-18T11:35:17.985Z,52.19
2023-05-18T11:36:17.934Z,52.48
2023-05-18T11:37:17.884Z,53.17
2023-05-18T11:38:17.850Z,52.93
2023-05-18T11:39:17.820Z,52.62
2023-05-18T11:40:17.783Z,52.78
2023-05-18T11:41:17.733Z,51.98
2023-05-18T11:42:17.722Z,52.32
2023-05-18T11:43:17.659Z,52.07
2023-05-18T11:44:17.663Z,51.72
2023-05-18T11:45:17.613Z,51.66
2023-05-18T11:46:17.549Z,52.85
2023-05-18T11:47:17.519Z,52.19
2023-05-18T11:48:17.638Z,52.28
2023-05-18T11:49:17.498Z,52.45
2023-05-18T11:50:17.498Z,52.85
2023-05-18T11:51:17.383Z,52.36
2023-05-18T11:52:17.343Z,51.72
2023-05-18T11:53:17.346Z,51.85
2023-05-18T11:54:17.261Z,52.19
2023-05-18T11:55:17.226Z,52.00
2023-05-18T11:56:17.187Z,52.09
2023-05-18T11:57:17.145Z,51.39
2023-05-18T11:58:17.167Z,51.19
2023-05-18T11:59:17.039Z,52.26
2023-05-18T12:00:16.995Z,51.62
2023-05-18T12:01:16.929Z,51.23
2023-05-18T12:02:16.906Z,51.88
2023-05-18T12:03:16.949Z,51.34
2023-05-18T12:04:16.903Z,51.33
2023-05-18T12:05:16.783Z,51.48
2023-05-18T12:06:16.809Z,51.81
2023-05-18T12:07:16.732Z,51.91
2023-05-18T12:08:16.753Z,50.94
2023-05-18T12:09:16.783Z,50.38
2023-05-18T12:10:16.729Z,50.62
2023-05-18T12:11:16.730Z,51.07
2023-05-18T12:12:16.738Z,51.29
2023-05-18T12:13:16.726Z,52.31
2023-05-18T12:14:16.722Z,51.45
2023-05-18T12:15:17.340Z,50.79
2023-05-18T12:16:16.691Z,51.00
2023-05-18T12:17:16.696Z,51.12
2023-05-18T12:18:16.738Z,50.51
2023-05-18T12:19:16.709Z,50.27
2023-05-18T12:20:16.737Z,51.19
2023-05-18T12:21:16.699Z,49.86
2023-05-18T12:22:16.737Z,49.58
2023-05-18T12:23:16.666Z,50.04
2023-05-18T12:24:16.659Z,51.71
2023-05-18T12:25:16.624Z,50.29
2023-05-18T12:26:16.586Z,50.32
2023-05-18T12:27:16.544Z,50.05
2023-05-18T12:28:16.533Z,50.25
2023-05-18T12:29:16.481Z,50.47
2023-05-18T12:30:16.491Z,49.88
2023-05-18T12:31:16.472Z,50.65
2023-05-18T12:32:16.395Z,51.93
2023-05-18T12:33:16.577Z,49.69
2023-05-18T12:34:16.391Z,49.88
2023-05-18T12:35:16.349Z,49.66
2023-05-18T12:36:16.316Z,48.84
2023-05-18T12:37:16.310Z,49.27
2023-05-18T12:38:16.285Z,48.68
2023-05-18T12:39:16.261Z,48.79
2023-05-18T12:40:16.242Z,49.33
2023-05-18T12:41:16.215Z,49.27
2023-05-18T12:42:16.228Z,49.00
2023-05-18T12:43:16.223Z,48.21
2023-05-18T12:44:16.190Z,47.17
2023-05-18T12:45:16.164Z,47.35
2023-05-18T12:46:16.198Z,47.92
2023-05-18T12:47:16.096Z,48.94
2023-05-18T12:48:16.157Z,50.25
2023-05-18T12:49:16.070Z,47.77
2023-05-18T12:50:16.039Z,48.37
2023-05-18T12:51:15.973Z,46.95
2023-05-18T12:52:15.961Z,47.76
2023-05-18T12:53:15.906Z,47.94